Time;durP1;ratioP1;P1;durP2;ratioP2;P2;SDS_P1;SDS_P2;PMS_P1;PMS_P2;Temp;Humidity;BMP_temperature;BMP_pressure;BME280_temperature;BME280_humidity;BME280_pressure;Samples;Min_cycle;Max_cycle;Signal;HPM_P1;HPM_P2
2023/06/11 00:00:23;;;;;;;0.55;0.30;;;21.70;99.90;;;;;;5017051;28;20120;-87
2023/06/11 00:02:53;;;;;;;0.10;0.10;;;21.80;99.90;;;;;;5016929;28;20029;-87
2023/06/11 00:05:20;;;;;;;0.10;0.10;;;21.80;99.90;;;;;;5034678;28;20415;-87
2023/06/11 00:07:48;;;;;;;0.10;0.10;;;21.80;99.90;;;;;;5016680;28;20122;-87
2023/06/11 00:10:15;;;;;;;0.00;0.00;;;21.70;99.90;;;;;;5034443;28;20030;-87
2023/06/11 00:12:41;;;;;;;0.00;0.00;;;21.70;99.90;;;;;;5034054;28;20025;-87
2023/06/11 00:15:08;;;;;;;0.00;0.00;;;21.60;99.90;;;;;;5034204;28;20036;-87
2023/06/11 00:17:33;;;;;;;0.00;0.00;;;21.50;99.90;;;;;;5016357;28;20033;-87
2023/06/11 00:20:09;;;;;;;0.00;0.00;;;21.60;99.90;;;;;;5034159;28;20029;-87
2023/06/11 00:22:37;;;;;;;0.13;0.13;;;21.70;99.90;;;;;;5034162;28;20040;-86
2023/06/11 00:25:03;;;;;;;0.00;0.00;;;21.60;99.90;;;;;;5016420;28;20024;-87
2023/06/11 00:27:29;;;;;;;0.10;0.10;;;21.50;99.90;;;;;;5033931;28;20501;-87
2023/06/11 00:29:54;;;;;;;0.10;0.10;;;21.50;99.90;;;;;;5016707;28;20014;-87
2023/06/11 00:32:20;;;;;;;0.00;0.00;;;21.50;99.90;;;;;;5016189;28;20444;-87
2023/06/11 00:34:46;;;;;;;0.00;0.00;;;21.40;99.90;;;;;;5033907;28;20033;-87
2023/06/11 00:37:11;;;;;;;0.10;0.10;;;21.50;99.90;;;;;;5016386;28;20407;-87
2023/06/11 00:39:37;;;;;;;0.05;0.05;;;21.50;99.90;;;;;;5034244;28;20025;-87
2023/06/11 00:42:03;;;;;;;0.10;0.10;;;21.50;99.90;;;;;;5033761;28;20029;-87
2023/06/11 00:44:29;;;;;;;0.00;0.00;;;21.40;99.90;;;;;;5014153;28;20030;-86
2023/06/11 00:46:57;;;;;;;0.10;0.10;;;21.30;99.90;;;;;;5033655;28;20493;-87
2023/06/11 00:49:23;;;;;;;0.10;0.10;;;21.30;99.90;;;;;;5034022;28;20025;-87
2023/06/11 00:51:50;;;;;;;0.10;0.10;;;21.20;99.90;;;;;;5033902;28;20101;-87
2023/06/11 00:54:18;;;;;;;0.57;0.15;;;20.90;99.90;;;;;;5033764;28;20025;-87
2023/06/11 00:56:44;;;;;;;0.10;0.10;;;20.60;99.90;;;;;;5012710;28;20398;-87
2023/06/11 00:59:15;;;;;;;0.10;0.10;;;20.50;99.90;;;;;;5029588;28;20032;-87
2023/06/11 01:02:05;;;;;;;0.10;0.10;;;20.70;99.90;;;;;;5033299;28;20394;-87
2023/06/11 01:04:33;;;;;;;0.20;0.20;;;20.80;99.90;;;;;;5033544;28;20033;-87
2023/06/11 01:07:04;;;;;;;0.10;0.10;;;21.00;99.90;;;;;;5012818;28;20045;-88
2023/06/11 01:09:30;;;;;;;0.25;0.17;;;21.10;99.90;;;;;;5014077;28;20375;-87
2023/06/11 01:11:57;;;;;;;0.00;0.00;;;21.00;99.90;;;;;;5033356;28;20535;-87
2023/06/11 01:14:22;;;;;;;0.10;0.10;;;20.90;99.90;;;;;;5013112;28;20033;-87
2023/06/11 01:17:05;;;;;;;0.05;0.05;;;20.90;99.90;;;;;;5033136;28;20390;-87
2023/06/11 01:19:48;;;;;;;0.10;0.10;;;21.00;99.90;;;;;;5033275;28;20045;-87
2023/06/11 01:22:22;;;;;;;0.20;0.20;;;20.70;99.90;;;;;;5033248;28;20029;-87
2023/06/11 01:25:12;;;;;;;0.15;0.15;;;20.60;99.90;;;;;;5033111;28;20100;-87
2023/06/11 01:27:43;;;;;;;0.10;0.10;;;20.60;99.90;;;;;;5014740;28;20033;-87
2023/06/11 01:30:20;;;;;;;0.40;0.40;;;20.60;99.90;;;;;;5032596;28;20044;-87
2023/06/11 01:32:52;;;;;;;0.10;0.10;;;20.60;99.90;;;;;;5015613;28;20034;-87
2023/06/11 01:35:19;;;;;;;0.00;0.00;;;20.70;99.90;;;;;;5032868;28;20029;-87
2023/06/11 01:37:45;;;;;;;0.00;0.00;;;20.60;99.90;;;;;;5033132;28;20045;-87
2023/06/11 01:40:13;;;;;;;0.80;0.55;;;20.60;99.90;;;;;;5032924;28;20057;-87
2023/06/11 01:42:39;;;;;;;0.00;0.00;;;20.60;99.90;;;;;;5032738;28;20026;-87
2023/06/11 01:45:06;;;;;;;0.15;0.15;;;20.70;99.90;;;;;;5015004;28;20021;-87
2023/06/11 01:47:31;;;;;;;0.52;0.30;;;20.60;99.90;;;;;;5033126;28;20483;-87
2023/06/11 01:49:57;;;;;;;0.00;0.00;;;20.40;99.90;;;;;;5032874;28;20021;-87
2023/06/11 01:52:24;;;;;;;0.00;0.00;;;20.50;99.90;;;;;;5032994;28;20029;-87
2023/06/11 01:54:51;;;;;;;0.17;0.17;;;20.20;99.90;;;;;;5033588;28;20017;-87
2023/06/11 01:57:17;;;;;;;0.30;0.20;;;20.20;99.90;;;;;;5032617;28;20136;-88
2023/06/11 01:59:42;;;;;;;0.22;0.15;;;20.30;99.90;;;;;;5032892;28;20071;-87
2023/06/11 02:02:08;;;;;;;0.08;0.08;;;20.50;99.90;;;;;;5032591;28;20056;-87
2023/06/11 02:04:33;;;;;;;0.20;0.10;;;20.50;99.90;;;;;;5014924;28;20428;-86
2023/06/11 02:07:00;;;;;;;0.65;0.65;;;20.60;99.90;;;;;;5015043;28;20383;-87
2023/06/11 02:09:25;;;;;;;0.22;0.22;;;20.60;99.90;;;;;;5032854;28;20037;-87
2023/06/11 02:11:51;;;;;;;0.15;0.15;;;20.50;99.90;;;;;;5014335;28;20032;-88
2023/06/11 02:14:16;;;;;;;0.22;0.22;;;20.30;99.90;;;;;;5032553;28;20021;-87
2023/06/11 02:16:42;;;;;;;0.10;0.10;;;20.40;99.90;;;;;;5032574;28;20029;-88
2023/06/11 02:19:07;;;;;;;0.10;0.10;;;20.40;99.90;;;;;;5014795;28;20021;-87
2023/06/11 02:21:33;;;;;;;0.20;0.20;;;20.30;99.90;;;;;;5014814;28;20029;-87
2023/06/11 02:23:59;;;;;;;0.90;0.28;;;20.20;99.90;;;;;;5014624;28;20045;-87
2023/06/11 02:26:25;;;;;;;0.50;0.38;;;20.30;99.90;;;;;;5032428;28;20071;-87
2023/06/11 02:28:51;;;;;;;0.10;0.10;;;20.10;99.90;;;;;;5032207;28;20033;-87
2023/06/11 02:31:17;;;;;;;0.10;0.10;;;20.20;99.90;;;;;;5032024;28;20523;-87
2023/06/11 02:33:43;;;;;;;0.10;0.10;;;20.20;99.90;;;;;;5014585;28;20034;-87
2023/06/11 02:36:08;;;;;;;0.10;0.10;;;20.10;99.90;;;;;;5032173;28;20025;-87
2023/06/11 02:38:34;;;;;;;0.10;0.10;;;20.20;99.90;;;;;;5014518;28;20025;-87
2023/06/11 02:40:59;;;;;;;0.10;0.10;;;20.20;99.90;;;;;;5032350;28;20056;-87
2023/06/11 02:43:25;;;;;;;0.00;0.00;;;20.30;99.90;;;;;;5011891;28;20022;-87
2023/06/11 02:45:51;;;;;;;0.10;0.10;;;20.40;99.90;;;;;;5011491;28;20034;-87
2023/06/11 02:48:16;;;;;;;0.22;0.17;;;20.40;99.90;;;;;;5011972;28;20058;-87
2023/06/11 02:50:42;;;;;;;0.10;0.10;;;20.40;99.90;;;;;;5032294;28;20100;-88
2023/06/11 02:53:07;;;;;;;0.00;0.00;;;20.40;99.90;;;;;;5032119;28;20029;-87
2023/06/11 02:55:33;;;;;;;0.00;0.00;;;20.40;99.90;;;;;;5032797;28;20033;-87
2023/06/11 02:57:58;;;;;;;0.22;0.22;;;20.40;99.90;;;;;;5010725;28;20458;-87
2023/06/11 03:00:25;;;;;;;0.30;0.30;;;20.40;99.90;;;;;;5012285;28;20032;-87
2023/06/11 03:02:51;;;;;;;0.10;0.10;;;20.20;99.90;;;;;;5011109;28;20026;-87
2023/06/11 03:05:16;;;;;;;1.55;0.30;;;20.10;99.90;;;;;;5011304;28;20397;-87
2023/06/11 03:07:42;;;;;;;0.10;0.10;;;20.20;99.90;;;;;;5015071;28;20025;-87
2023/06/11 03:10:09;;;;;;;0.10;0.10;;;20.20;99.90;;;;;;5035915;28;20519;-87
2023/06/11 03:12:34;;;;;;;0.10;0.10;;;20.10;99.90;;;;;;5016919;28;20018;-87
2023/06/11 03:15:01;;;;;;;0.10;0.10;;;20.10;99.90;;;;;;5035901;28;20079;-86
2023/06/11 03:17:26;;;;;;;0.43;0.20;;;20.20;99.90;;;;;;5015885;28;20030;-87
2023/06/11 03:19:52;;;;;;;0.10;0.10;;;20.20;99.90;;;;;;5014898;28;20034;-87
2023/06/11 03:22:17;;;;;;;0.10;0.10;;;20.20;99.90;;;;;;5032616;28;20025;-88
2023/06/11 03:24:43;;;;;;;0.00;0.00;;;20.20;99.90;;;;;;5035148;28;20041;-87
2023/06/11 03:27:10;;;;;;;0.60;0.40;;;20.20;99.90;;;;;;5035469;28;20037;-87
2023/06/11 03:29:35;;;;;;;0.10;0.10;;;20.10;99.90;;;;;;5035894;28;20108;-87
2023/06/11 03:32:01;;;;;;;0.10;0.10;;;20.20;99.90;;;;;;5035671;28;20068;-87
2023/06/11 03:34:26;;;;;;;0.08;0.08;;;20.20;99.90;;;;;;5017935;28;20359;-87
2023/06/11 03:36:52;;;;;;;0.10;0.10;;;20.20;99.90;;;;;;5035437;28;20026;-87
2023/06/11 03:39:17;;;;;;;0.25;0.25;;;20.20;99.90;;;;;;5035417;28;20034;-87
2023/06/11 03:41:43;;;;;;;0.30;0.30;;;20.30;99.90;;;;;;5017718;28;20052;-87
2023/06/11 03:44:09;;;;;;;0.00;0.00;;;20.10;99.90;;;;;;5036493;28;20053;-87
2023/06/11 03:46:34;;;;;;;0.10;0.10;;;19.90;99.90;;;;;;5035032;28;20072;-88
2023/06/11 03:49:00;;;;;;;0.17;0.17;;;19.90;99.90;;;;;;5035535;28;20037;-87
2023/06/11 03:51:26;;;;;;;0.10;0.10;;;19.90;99.90;;;;;;5035380;28;20105;-87
2023/06/11 03:53:51;;;;;;;0.10;0.10;;;19.50;99.90;;;;;;5034850;28;20111;-87
2023/06/11 03:56:17;;;;;;;1.20;0.45;;;19.40;99.90;;;;;;5017868;28;20100;-87
2023/06/11 03:58:42;;;;;;;0.30;0.30;;;19.30;99.90;;;;;;5035078;28;20075;-88
2023/06/11 04:01:08;;;;;;;0.08;0.08;;;19.30;99.90;;;;;;5035118;28;20499;-87
2023/06/11 04:03:34;;;;;;;0.10;0.10;;;19.40;99.90;;;;;;5035363;28;20080;-87
2023/06/11 04:06:00;;;;;;;0.22;0.20;;;19.50;99.90;;;;;;5034998;28;20025;-88
2023/06/11 04:08:25;;;;;;;0.08;0.08;;;19.70;99.90;;;;;;5017423;28;20041;-87
2023/06/11 04:10:51;;;;;;;0.00;0.00;;;19.90;99.90;;;;;;5016666;28;20053;-87
2023/06/11 04:13:17;;;;;;;0.20;0.20;;;19.90;99.90;;;;;;5017155;28;20029;-87
2023/06/11 04:15:42;;;;;;;0.10;0.10;;;20.10;99.90;;;;;;5034803;28;20029;-87
2023/06/11 04:18:09;;;;;;;0.20;0.20;;;19.80;99.90;;;;;;5034310;28;20125;-87
2023/06/11 04:20:35;;;;;;;0.20;0.20;;;19.70;99.90;;;;;;5034693;28;20022;-87
2023/06/11 04:23:01;;;;;;;0.20;0.20;;;19.90;99.90;;;;;;5034284;28;20036;-87
2023/06/11 04:25:26;;;;;;;0.15;0.15;;;19.90;99.90;;;;;;5034147;28;20021;-87
2023/06/11 04:27:53;;;;;;;0.32;0.32;;;19.90;99.90;;;;;;5016586;28;20033;-87
2023/06/11 04:30:20;;;;;;;10.50;0.30;;;19.80;99.90;;;;;;5016576;28;20053;-87
2023/06/11 04:32:47;;;;;;;0.28;0.28;;;19.70;99.90;;;;;;5016946;28;20495;-87
2023/06/11 04:35:12;;;;;;;0.08;0.08;;;19.60;99.90;;;;;;5034328;28;20106;-87
2023/06/11 04:37:40;;;;;;;0.35;0.35;;;19.80;99.90;;;;;;5017344;28;20064;-87
2023/06/11 04:40:09;;;;;;;0.17;0.17;;;19.80;99.90;;;;;;5034247;28;20048;-87
2023/06/11 04:42:41;;;;;;;0.13;0.13;;;20.10;99.90;;;;;;5034414;28;20041;-88
2023/06/11 04:45:09;;;;;;;0.32;0.20;;;20.10;99.90;;;;;;5034595;28;20101;-87
2023/06/11 04:47:36;;;;;;;0.00;0.00;;;20.20;99.90;;;;;;5015268;28;20475;-87
2023/06/11 04:50:04;;;;;;;0.00;0.00;;;20.40;99.90;;;;;;5034011;28;20033;-87
2023/06/11 04:52:31;;;;;;;0.28;0.28;;;20.40;99.90;;;;;;5033701;28;20083;-87
2023/06/11 04:55:02;;;;;;;0.03;0.03;;;20.30;99.90;;;;;;5033997;28;20025;-87
2023/06/11 04:57:28;;;;;;;0.17;0.17;;;20.20;99.90;;;;;;5033360;28;20033;-87
2023/06/11 04:59:53;;;;;;;0.10;0.10;;;20.10;99.90;;;;;;5033915;28;20021;-87
2023/06/11 05:02:21;;;;;;;0.75;0.30;;;20.30;99.90;;;;;;5033916;28;20083;-86
2023/06/11 05:04:49;;;;;;;0.10;0.10;;;20.30;99.90;;;;;;5033880;28;20025;-87
2023/06/11 05:07:17;;;;;;;0.63;0.57;;;20.20;99.90;;;;;;5033207;28;20116;-87
2023/06/11 05:09:44;;;;;;;0.10;0.10;;;20.30;99.90;;;;;;5033609;28;20025;-87
2023/06/11 05:12:09;;;;;;;0.40;0.40;;;20.30;99.90;;;;;;5012264;28;20103;-87
2023/06/11 05:14:35;;;;;;;0.10;0.10;;;20.50;99.90;;;;;;5015177;28;20109;-88
2023/06/11 05:17:01;;;;;;;0.38;0.30;;;20.60;99.90;;;;;;5012362;28;20064;-88
2023/06/11 05:19:26;;;;;;;0.10;0.10;;;20.80;99.90;;;;;;5031561;28;20489;-87
2023/06/11 05:21:52;;;;;;;0.10;0.10;;;20.80;99.90;;;;;;5033504;28;20397;-88
2023/06/11 05:24:21;;;;;;;0.20;0.20;;;21.00;99.90;;;;;;5033317;28;20029;-86
2023/06/11 05:26:47;;;;;;;0.43;0.20;;;21.30;99.90;;;;;;5033262;28;20033;-87
2023/06/11 05:29:12;;;;;;;0.65;0.20;;;21.60;99.90;;;;;;5012333;28;20044;-87
2023/06/11 05:31:39;;;;;;;0.10;0.10;;;21.80;99.90;;;;;;5032086;28;20124;-87
2023/06/11 05:34:05;;;;;;;0.00;0.00;;;21.80;99.90;;;;;;5033462;28;20458;-88
2023/06/11 05:36:31;;;;;;;0.10;0.10;;;21.70;99.90;;;;;;5033078;28;20029;-87
2023/06/11 05:38:56;;;;;;;0.20;0.20;;;21.80;99.90;;;;;;5015298;28;20030;-87
2023/06/11 05:41:22;;;;;;;0.10;0.10;;;21.80;99.90;;;;;;5015182;28;20089;-87
2023/06/11 05:43:48;;;;;;;0.10;0.10;;;21.80;99.90;;;;;;5033000;28;20084;-86
2023/06/11 05:46:15;;;;;;;0.10;0.10;;;21.70;99.90;;;;;;5033258;28;20108;-88
2023/06/11 05:48:41;;;;;;;0.30;0.17;;;21.70;99.90;;;;;;5031785;28;20034;-87
2023/06/11 05:51:07;;;;;;;0.10;0.10;;;21.70;99.90;;;;;;5032825;28;20064;-88
2023/06/11 05:53:32;;;;;;;0.00;0.00;;;22.00;99.90;;;;;;5015282;28;20497;-87
2023/06/11 05:56:03;;;;;;;0.00;0.00;;;21.90;99.90;;;;;;5033210;28;20079;-91
2023/06/11 05:58:33;;;;;;;5.50;0.90;;;21.80;99.90;;;;;;5034035;28;20116;-90
2023/06/11 06:01:02;;;;;;;0.10;0.10;;;21.60;99.90;;;;;;5033152;28;20108;-88
2023/06/11 06:03:32;;;;;;;0.10;0.10;;;21.80;99.90;;;;;;5033293;28;20029;-89
2023/06/11 06:06:01;;;;;;;0.10;0.10;;;21.70;99.90;;;;;;5032917;28;20549;-90
2023/06/11 06:08:28;;;;;;;0.70;0.32;;;21.70;99.90;;;;;;5015504;28;20045;-87
2023/06/11 06:10:55;;;;;;;1.40;0.50;;;21.60;99.90;;;;;;5032638;28;20071;-85
2023/06/11 06:13:23;;;;;;;0.30;0.30;;;21.80;99.90;;;;;;5032508;28;20026;-85
2023/06/11 06:15:48;;;;;;;0.10;0.10;;;21.90;99.90;;;;;;5031937;28;20388;-86
2023/06/11 06:18:15;;;;;;;0.00;0.00;;;22.00;99.90;;;;;;5032468;28;20030;-85
2023/06/11 06:20:42;;;;;;;0.00;0.00;;;21.90;99.90;;;;;;5022795;28;20109;-85
2023/06/11 06:23:08;;;;;;;0.00;0.00;;;21.90;99.90;;;;;;5013043;28;20168;-85
2023/06/11 06:25:36;;;;;;;0.00;0.00;;;21.90;99.90;;;;;;5018957;28;20025;-86
2023/06/11 06:28:02;;;;;;;0.10;0.10;;;21.80;99.90;;;;;;5019184;28;20046;-85
2023/06/11 06:30:27;;;;;;;0.05;0.05;;;21.80;99.90;;;;;;5001857;28;20029;-85
2023/06/11 06:32:53;;;;;;;0.10;0.10;;;22.00;99.90;;;;;;5019352;28;20446;-85
2023/06/11 06:35:18;;;;;;;0.10;0.10;;;22.00;99.90;;;;;;5018175;28;20122;-84
2023/06/11 06:37:45;;;;;;;0.00;0.00;;;22.00;99.90;;;;;;5020160;28;20036;-85
2023/06/11 06:40:12;;;;;;;0.15;0.15;;;22.00;99.90;;;;;;5007135;28;20048;-85
2023/06/11 06:42:38;;;;;;;0.10;0.10;;;22.00;99.90;;;;;;5023890;28;20068;-84
2023/06/11 06:45:04;;;;;;;0.00;0.00;;;22.20;99.90;;;;;;5023384;28;20542;-84
2023/06/11 06:47:30;;;;;;;0.05;0.05;;;22.20;99.90;;;;;;5022937;28;20781;-84
2023/06/11 06:49:55;;;;;;;0.10;0.10;;;22.30;99.90;;;;;;5022377;28;20082;-84
2023/06/11 06:52:21;;;;;;;0.20;0.20;;;22.40;99.90;;;;;;5022837;28;20033;-86
2023/06/11 06:54:48;;;;;;;0.10;0.10;;;22.50;99.90;;;;;;5022627;28;20437;-81
2023/06/11 06:57:14;;;;;;;0.00;0.00;;;22.60;99.90;;;;;;5025342;28;20017;-89
2023/06/11 06:59:39;;;;;;;0.00;0.00;;;22.20;99.90;;;;;;5024025;28;20088;-82
2023/06/11 07:02:06;;;;;;;0.22;0.20;;;22.10;99.90;;;;;;5023817;28;20017;-93
2023/06/11 07:04:31;;;;;;;0.20;0.20;;;22.10;99.90;;;;;;5023681;28;20579;-85
2023/06/11 07:06:57;;;;;;;0.10;0.10;;;22.00;99.90;;;;;;5021029;28;20022;-89
2023/06/11 07:09:23;;;;;;;0.00;0.00;;;22.10;99.90;;;;;;5008158;28;20041;-86
2023/06/11 07:11:52;;;;;;;0.28;0.28;;;22.30;99.90;;;;;;5022906;28;20120;-86
2023/06/11 07:14:17;;;;;;;0.00;0.00;;;22.40;99.90;;;;;;5026582;28;20041;-92
2023/06/11 07:16:43;;;;;;;0.00;0.00;;;22.50;99.90;;;;;;5028922;28;20087;-89
2023/06/11 07:19:08;;;;;;;0.10;0.10;;;22.50;99.90;;;;;;5026228;28;20021;-90
2023/06/11 07:21:36;;;;;;;0.03;0.00;;;22.50;99.90;;;;;;5008303;28;20018;-87
2023/06/11 07:24:04;;;;;;;0.00;0.00;;;22.60;99.90;;;;;;5024137;28;20148;-90
2023/06/11 07:26:30;;;;;;;0.03;0.03;;;22.70;99.90;;;;;;5023521;28;20018;-88
2023/06/11 07:28:56;;;;;;;0.00;0.00;;;22.70;99.90;;;;;;5024862;28;20099;-90
2023/06/11 07:31:21;;;;;;;0.10;0.10;;;22.70;99.90;;;;;;5004639;28;20478;-86
2023/06/11 07:33:48;;;;;;;0.10;0.10;;;22.70;99.90;;;;;;5023174;28;20073;-86
2023/06/11 07:36:15;;;;;;;0.00;0.00;;;22.70;99.90;;;;;;5022027;28;20054;-85
2023/06/11 07:38:42;;;;;;;0.10;0.10;;;22.80;99.90;;;;;;5021539;28;20026;-85
2023/06/11 07:41:08;;;;;;;0.10;0.10;;;22.90;99.90;;;;;;5021861;28;20057;-84
2023/06/11 07:43:33;;;;;;;0.20;0.20;;;23.10;99.90;;;;;;5021704;28;20092;-85
2023/06/11 07:45:59;;;;;;;0.17;0.17;;;23.30;99.90;;;;;;5021703;28;20511;-85
2023/06/11 07:48:25;;;;;;;0.00;0.00;;;23.40;99.90;;;;;;5023004;28;20466;-85
2023/06/11 07:50:52;;;;;;;0.25;0.25;;;23.30;99.90;;;;;;5022405;28;20104;-85
2023/06/11 07:53:19;;;;;;;0.65;0.32;;;23.50;99.90;;;;;;5021493;28;20367;-84
2023/06/11 07:55:45;;;;;;;0.75;0.05;;;23.50;99.90;;;;;;5021538;28;20557;-85
2023/06/11 07:58:10;;;;;;;0.20;0.20;;;23.60;99.90;;;;;;5023453;28;20109;-85
2023/06/11 08:00:36;;;;;;;0.15;0.10;;;23.60;99.90;;;;;;5021563;28;20517;-85
2023/06/11 08:03:01;;;;;;;0.30;0.30;;;23.60;99.90;;;;;;5021375;28;20022;-85
2023/06/11 08:05:27;;;;;;;0.30;0.30;;;23.60;99.90;;;;;;5021456;28;20458;-85
2023/06/11 08:07:52;;;;;;;0.30;0.13;;;23.70;99.90;;;;;;5022555;28;20025;-85
2023/06/11 08:10:18;;;;;;;0.13;0.13;;;24.00;99.90;;;;;;5021482;28;20430;-85
2023/06/11 08:12:44;;;;;;;0.28;0.28;;;24.00;99.90;;;;;;5021368;28;20037;-84
2023/06/11 08:15:12;;;;;;;0.25;0.25;;;23.90;99.90;;;;;;5021099;28;20035;-85
2023/06/11 08:17:38;;;;;;;0.20;0.20;;;23.90;99.90;;;;;;5023331;28;20405;-85
2023/06/11 08:20:07;;;;;;;0.40;0.40;;;23.80;99.90;;;;;;5025092;28;20064;-86
2023/06/11 08:22:32;;;;;;;0.75;0.38;;;23.90;99.90;;;;;;5030819;28;20029;-87
2023/06/11 08:24:58;;;;;;;0.10;0.10;;;24.10;99.90;;;;;;5022327;28;20029;-87
2023/06/11 08:27:23;;;;;;;0.03;0.03;;;24.10;99.90;;;;;;5003293;28;20555;-87
2023/06/11 08:29:49;;;;;;;0.13;0.13;;;24.10;99.90;;;;;;5029853;28;20025;-87
2023/06/11 08:32:15;;;;;;;0.20;0.20;;;24.40;99.90;;;;;;5027771;28;20117;-87
2023/06/11 08:34:41;;;;;;;0.13;0.13;;;24.50;99.90;;;;;;5020751;28;20382;-86
2023/06/11 08:37:06;;;;;;;0.10;0.10;;;24.50;99.90;;;;;;5024036;28;20033;-86
2023/06/11 08:39:32;;;;;;;0.25;0.25;;;24.50;99.90;;;;;;5022909;28;20037;-86
2023/06/11 08:41:57;;;;;;;0.17;0.17;;;24.60;99.90;;;;;;5025451;28;20034;-87
2023/06/11 08:44:23;;;;;;;0.00;0.00;;;24.90;99.90;;;;;;5024509;28;20517;-86
2023/06/11 08:46:49;;;;;;;0.10;0.10;;;25.00;99.90;;;;;;5022648;28;20021;-87
2023/06/11 08:49:22;;;;;;;0.30;0.30;;;25.10;99.90;;;;;;5021939;28;20030;-87
2023/06/11 08:51:49;;;;;;;0.43;0.40;;;25.00;99.90;;;;;;4991885;28;20516;-86
2023/06/11 08:54:15;;;;;;;0.30;0.30;;;25.00;99.90;;;;;;5021713;28;20021;-87
2023/06/11 08:56:42;;;;;;;3.03;0.47;;;25.20;99.90;;;;;;5024828;28;20068;-87
2023/06/11 08:59:08;;;;;;;0.28;0.28;;;25.20;99.90;;;;;;5019396;28;20026;-86
2023/06/11 09:01:33;;;;;;;0.32;0.20;;;25.30;99.90;;;;;;5015566;28;20390;-86
2023/06/11 09:04:00;;;;;;;0.63;0.63;;;25.60;99.90;;;;;;5033866;28;20032;-86
2023/06/11 09:06:27;;;;;;;0.30;0.20;;;25.80;99.90;;;;;;5015229;28;20462;-87
2023/06/11 09:09:07;;;;;;;0.10;0.10;;;25.80;99.90;;;;;;5014008;28;20494;-86
2023/06/11 09:11:37;;;;;;;0.65;0.65;;;26.00;99.90;;;;;;5028840;28;20108;-86
2023/06/11 09:14:05;;;;;;;0.13;0.13;;;26.20;99.90;;;;;;5033404;28;20056;-86
2023/06/11 09:16:39;;;;;;;0.43;0.43;;;26.10;99.90;;;;;;5033711;28;20018;-86
2023/06/11 09:19:05;;;;;;;0.35;0.35;;;25.90;99.90;;;;;;5033902;28;20423;-86
2023/06/11 09:21:31;;;;;;;0.17;0.17;;;26.10;99.90;;;;;;5034159;28;20022;-87
2023/06/11 09:24:07;;;;;;;0.17;0.17;;;26.30;99.90;;;;;;5033842;28;20482;-86
2023/06/11 09:26:33;;;;;;;0.20;0.20;;;26.20;99.90;;;;;;5033786;28;20047;-86
2023/06/11 09:29:02;;;;;;;0.30;0.15;;;26.10;99.90;;;;;;5033341;28;20474;-86
2023/06/11 09:31:28;;;;;;;0.47;0.47;;;26.00;99.90;;;;;;5033287;28;20048;-86
2023/06/11 09:33:53;;;;;;;0.00;0.00;;;25.70;99.90;;;;;;5028971;28;20489;-86
2023/06/11 09:36:22;;;;;;;0.95;0.70;;;25.80;99.90;;;;;;5011897;28;20029;-87
2023/06/11 09:38:48;;;;;;;0.20;0.20;;;25.70;99.90;;;;;;5021933;28;20080;-87
2023/06/11 09:41:14;;;;;;;0.43;0.43;;;25.90;99.90;;;;;;5020684;28;20041;-86
2023/06/11 09:43:40;;;;;;;0.10;0.10;;;26.00;99.90;;;;;;5019796;28;20413;-86
2023/06/11 09:46:07;;;;;;;0.25;0.25;;;26.20;99.90;;;;;;5021695;28;20029;-86
2023/06/11 09:48:33;;;;;;;0.15;0.15;;;26.20;99.90;;;;;;5022202;28;20457;-86
2023/06/11 09:51:00;;;;;;;0.10;0.10;;;26.20;99.90;;;;;;5019685;28;20029;-85
2023/06/11 09:53:27;;;;;;;0.10;0.10;;;26.30;99.90;;;;;;5019756;28;20484;-85
2023/06/11 09:55:53;;;;;;;0.30;0.30;;;26.20;99.90;;;;;;5022372;28;20018;-85
2023/06/11 09:58:23;;;;;;;1.08;0.32;;;26.20;99.90;;;;;;5019863;28;20076;-85
2023/06/11 10:00:50;;;;;;;0.08;0.08;;;26.40;99.90;;;;;;5020056;28;20025;-85
2023/06/11 10:03:16;;;;;;;0.10;0.10;;;26.40;99.90;;;;;;5019023;28;20536;-85
2023/06/11 10:05:41;;;;;;;0.00;0.00;;;26.30;99.90;;;;;;5021238;28;20101;-88
2023/06/11 10:08:12;;;;;;;0.00;0.00;;;26.20;99.90;;;;;;5021977;28;20124;-88
2023/06/11 10:10:40;;;;;;;0.10;0.10;;;26.10;99.90;;;;;;5019331;28;20025;-88
2023/06/11 10:13:06;;;;;;;0.57;0.10;;;26.30;99.90;;;;;;5019421;28;20018;-88
2023/06/11 10:15:32;;;;;;;0.35;0.35;;;26.50;99.90;;;;;;5020855;28;20034;-88
2023/06/11 10:17:58;;;;;;;0.10;0.10;;;26.60;99.90;;;;;;5018906;28;20493;-88
2023/06/11 10:20:29;;;;;;;0.15;0.15;;;26.60;99.90;;;;;;5020761;28;20092;-88
2023/06/11 10:23:09;;;;;;;0.35;0.20;;;26.90;99.90;;;;;;5020614;28;20378;-85
2023/06/11 10:25:37;;;;;;;0.75;0.47;;;27.20;99.90;;;;;;5030765;28;20504;-85
2023/06/11 10:28:07;;;;;;;0.65;0.57;;;27.10;99.90;;;;;;5028609;28;20025;-85
2023/06/11 10:30:33;;;;;;;3.33;0.43;;;27.30;99.90;;;;;;5024195;28;20389;-86
2023/06/11 10:32:59;;;;;;;0.10;0.10;;;27.40;99.90;;;;;;5019643;28;20033;-85
2023/06/11 10:35:32;;;;;;;0.25;0.25;;;27.40;99.90;;;;;;5020471;28;20057;-85
2023/06/11 10:38:16;;;;;;;4.18;0.40;;;27.20;99.90;;;;;;5020129;28;20113;-85
2023/06/11 10:40:42;;;;;;;0.20;0.20;;;27.20;99.90;;;;;;5019719;28;20046;-85
2023/06/11 10:43:21;;;;;;;0.30;0.30;;;27.20;99.90;;;;;;5020549;28;20030;-85
2023/06/11 10:45:59;;;;;;;0.10;0.10;;;27.40;99.90;;;;;;5010343;28;20065;-85
2023/06/11 10:48:31;;;;;;;0.57;0.57;;;27.70;99.90;;;;;;5020324;28;20489;-85
2023/06/11 10:51:00;;;;;;;0.40;0.40;;;27.70;99.90;;;;;;5020891;28;20039;-87
2023/06/11 10:53:36;;;;;;;0.10;0.10;;;27.80;99.90;;;;;;5018859;28;20290;-85
2023/06/11 10:56:02;;;;;;;0.10;0.10;;;27.80;99.90;;;;;;5018163;28;20030;-84
2023/06/11 10:58:29;;;;;;;0.57;0.45;;;27.80;99.90;;;;;;5001607;28;20109;-85
2023/06/11 11:00:55;;;;;;;0.25;0.17;;;27.80;99.90;;;;;;5017798;28;20034;-85
2023/06/11 11:03:21;;;;;;;0.20;0.20;;;27.90;99.90;;;;;;5018635;28;20025;-84
2023/06/11 11:05:50;;;;;;;0.10;0.10;;;28.20;99.90;;;;;;5018915;28;20033;-84
2023/06/11 11:08:16;;;;;;;0.10;0.10;;;28.30;99.90;;;;;;5018233;28;20088;-87
2023/06/11 11:10:42;;;;;;;0.40;0.40;;;28.20;99.90;;;;;;5019646;28;20386;-87
2023/06/11 11:13:08;;;;;;;0.13;0.13;;;28.20;99.90;;;;;;5020068;28;20058;-89
2023/06/11 11:15:34;;;;;;;0.20;0.20;;;28.30;99.90;;;;;;5018727;28;20524;-87
2023/06/11 11:18:01;;;;;;;0.13;0.13;;;28.40;99.90;;;;;;5019121;28;20026;-87
2023/06/11 11:20:26;;;;;;;0.13;0.13;;;28.30;99.90;;;;;;5001164;28;20032;-85
2023/06/11 11:22:55;;;;;;;0.20;0.15;;;28.50;99.90;;;;;;5020553;28;20545;-93
2023/06/11 11:25:25;;;;;;;0.38;0.38;;;28.60;99.90;;;;;;5019168;28;20060;-85
2023/06/11 11:27:51;;;;;;;0.30;0.30;;;28.30;99.90;;;;;;5020885;28;20540;-83
2023/06/11 11:30:17;;;;;;;0.35;0.35;;;28.40;99.90;;;;;;5022698;28;20037;-84
2023/06/11 11:32:43;;;;;;;0.28;0.20;;;28.40;99.90;;;;;;5022549;28;20042;-84
2023/06/11 11:35:13;;;;;;;0.10;0.10;;;28.30;99.90;;;;;;5022899;28;20030;-84
2023/06/11 11:37:39;;;;;;;0.40;0.30;;;28.70;99.90;;;;;;5023328;28;20066;-84
2023/06/11 11:40:08;;;;;;;0.28;0.22;;;28.80;99.90;;;;;;5022099;28;20457;-84
2023/06/11 11:42:50;;;;;;;0.82;0.20;;;28.60;99.90;;;;;;5022941;28;20076;-84
2023/06/11 11:45:17;;;;;;;0.10;0.10;;;28.60;99.90;;;;;;5023019;28;20043;-84
2023/06/11 11:47:51;;;;;;;0.00;0.00;;;28.30;99.90;;;;;;5022061;28;20076;-84
2023/06/11 11:50:22;;;;;;;0.43;0.43;;;28.30;99.90;;;;;;5020832;28;20033;-84
2023/06/11 11:53:18;;;;;;;0.20;0.13;;;28.40;99.90;;;;;;5019734;28;20111;-84
2023/06/11 11:55:47;;;;;;;1.05;0.47;;;28.30;99.90;;;;;;5017585;28;20033;-83
2023/06/11 11:58:16;;;;;;;0.20;0.20;;;28.40;99.90;;;;;;5034789;28;20494;-84
2023/06/11 12:00:48;;;;;;;0.10;0.10;;;28.70;99.90;;;;;;5035164;28;20021;-84
2023/06/11 12:03:16;;;;;;;0.10;0.10;;;28.40;99.90;;;;;;5034966;28;20080;-83
2023/06/11 12:05:42;;;;;;;0.80;0.57;;;28.50;99.90;;;;;;5034883;28;20076;-84
2023/06/11 12:08:08;;;;;;;0.10;0.10;;;28.80;99.90;;;;;;5035144;28;20037;-84
2023/06/11 12:10:34;;;;;;;0.20;0.15;;;28.90;99.90;;;;;;5034949;28;20037;-84
2023/06/11 12:13:01;;;;;;;1.08;0.35;;;28.80;99.90;;;;;;5034485;28;20094;-83
2023/06/11 12:15:27;;;;;;;0.20;0.20;;;28.50;99.90;;;;;;5034590;28;20032;-84
2023/06/11 12:17:53;;;;;;;0.25;0.22;;;28.70;99.90;;;;;;5016891;28;20460;-84
2023/06/11 12:20:21;;;;;;;0.32;0.32;;;28.90;99.90;;;;;;5035041;28;20049;-83
2023/06/11 12:22:47;;;;;;;0.28;0.28;;;29.00;99.90;;;;;;5034051;28;20038;-84
2023/06/11 12:25:13;;;;;;;0.45;0.45;;;29.10;99.90;;;;;;5034245;28;20367;-84
2023/06/11 12:27:38;;;;;;;0.20;0.20;;;29.10;99.90;;;;;;5034282;28;20056;-84
2023/06/11 12:30:05;;;;;;;0.30;0.30;;;29.30;99.90;;;;;;5034546;28;20021;-84
2023/06/11 12:32:31;;;;;;;0.35;0.35;;;29.40;99.90;;;;;;5034291;28;20501;-84
2023/06/11 12:34:56;;;;;;;0.45;0.30;;;29.40;99.90;;;;;;5034247;28;20083;-84
2023/06/11 12:37:24;;;;;;;0.28;0.28;;;29.60;99.90;;;;;;5034271;28;20059;-84
2023/06/11 12:39:50;;;;;;;0.17;0.17;;;29.60;99.90;;;;;;5033607;28;20057;-84
2023/06/11 12:42:19;;;;;;;0.10;0.10;;;30.00;99.90;;;;;;5034062;28;20021;-83
2023/06/11 12:44:46;;;;;;;4.75;0.90;;;29.60;99.90;;;;;;5034194;28;20029;-84
2023/06/11 12:47:12;;;;;;;1.67;0.40;;;29.70;99.90;;;;;;5033868;28;20029;-84